KCTZ/CTZ METAR and TAF weather

Enter ICAO airport designator
Station Type Date Time Source
KCTZ METAR 2020/12/01 21:15 UTC NOAA

KCTZ 012115Z AUTO 26007G15KT 10SM CLR 09/M03 A2996 RMK AO2 T00881030


Station Type Date Time Source
KCTZ Decoded METAR 2020/12/01 21:15 UTC NOAA

Clinton, Sampson County Airport, NC, United States (KCTZ) 34-58-32N 078-21-53W
Dec 01, 2020 - 04:15 PM EST / 2020.12.01 2115 UTC
Wind: from the W (260 degrees) at 8 MPH (7 KT) gusting to 17 MPH (15 KT):0
Visibility: 10 mile(s):0
Sky conditions: clear
Temperature: 47.8 F (8.8 C)
Dew Point: 26.6 F (-3.0 C)
Relative Humidity: 43%
Pressure (altimeter): 29.96 in. Hg (1014 hPa)
ob: KCTZ 012115Z AUTO 26007G15KT 10SM CLR 09/M03 A2996 RMK AO2 T00881030
cycle: 21

Station Type Date Time Source
KCTZ TAF UTC NOAA

Error!

Example: see airport list